Time;durP1;ratioP1;P1;durP2;ratioP2;P2;SDS_P1;SDS_P2;PMS_P1;PMS_P2;Temp;Humidity;BMP_temperature;BMP_pressure;BME280_temperature;BME280_humidity;BME280_pressure;Samples;Min_cycle;Max_cycle;Signal;HPM_P1;HPM_P2
2023/08/05 00:00:58;;;;;;;0.50;0.45;;;22.40;55.70;;;;;;6296231;28;20573;-65
2023/08/05 00:03:58;;;;;;;0.75;0.40;;;22.40;55.70;;;;;;6296079;28;20064;-65
2023/08/05 00:06:59;;;;;;;0.80;0.47;;;22.40;55.70;;;;;;6278161;28;20029;-65
2023/08/05 00:10:00;;;;;;;0.50;0.50;;;22.40;55.70;;;;;;6296022;28;20036;-65
2023/08/05 00:13:00;;;;;;;0.47;0.32;;;22.40;55.80;;;;;;6295885;28;20029;-66
2023/08/05 00:16:02;;;;;;;0.57;0.45;;;22.30;55.70;;;;;;6314791;28;20470;-65
2023/08/05 00:19:03;;;;;;;0.35;0.30;;;22.40;55.80;;;;;;6320870;28;20437;-65
2023/08/05 00:22:04;;;;;;;1.20;0.70;;;22.40;55.80;;;;;;6313604;28;20032;-65
2023/08/05 00:25:05;;;;;;;0.52;0.52;;;22.40;55.80;;;;;;6295464;28;20032;-65
2023/08/05 00:28:06;;;;;;;0.40;0.40;;;22.40;55.80;;;;;;6295928;28;20044;-66
2023/08/05 00:31:08;;;;;;;0.50;0.50;;;22.30;55.70;;;;;;6277331;28;20409;-65
2023/08/05 00:34:09;;;;;;;0.60;0.40;;;22.30;55.70;;;;;;6295629;28;20029;-65
2023/08/05 00:37:10;;;;;;;0.40;0.40;;;22.30;55.80;;;;;;6295410;28;20044;-65
2023/08/05 00:40:11;;;;;;;0.43;0.43;;;22.30;55.80;;;;;;6295613;28;20481;-65
2023/08/05 00:43:12;;;;;;;0.60;0.47;;;22.30;55.80;;;;;;6295265;28;20051;-65
2023/08/05 00:46:13;;;;;;;0.50;0.50;;;22.30;55.80;;;;;;6295190;28;20029;-65
2023/08/05 00:49:14;;;;;;;0.57;0.47;;;22.30;55.80;;;;;;6294405;28;20066;-65
2023/08/05 00:52:17;;;;;;;0.40;0.40;;;22.30;55.80;;;;;;6294885;28;20033;-65
2023/08/05 00:55:19;;;;;;;0.63;0.45;;;22.30;56.00;;;;;;6294978;28;20017;-65
2023/08/05 00:58:21;;;;;;;0.50;0.43;;;22.30;56.00;;;;;;6276937;28;20066;-65
2023/08/05 01:01:21;;;;;;;0.70;0.60;;;22.30;56.00;;;;;;6294690;28;20115;-66
2023/08/05 01:04:22;;;;;;;0.50;0.50;;;22.30;56.00;;;;;;6294559;28;20036;-64
2023/08/05 01:07:24;;;;;;;0.50;0.50;;;22.30;56.00;;;;;;6294897;28;20130;-65
2023/08/05 01:10:24;;;;;;;1.65;0.50;;;22.30;56.20;;;;;;6294570;28;20064;-65
2023/08/05 01:13:25;;;;;;;0.50;0.50;;;22.30;56.10;;;;;;6294454;28;20025;-65
2023/08/05 01:16:26;;;;;;;0.70;0.60;;;22.30;56.10;;;;;;6316903;28;20086;-64
2023/08/05 01:19:27;;;;;;;0.65;0.55;;;22.30;56.20;;;;;;6299880;28;20125;-65
2023/08/05 01:22:42;;;;;;;0.50;0.50;;;22.30;56.20;;;;;;6276396;28;20087;-65
2023/08/05 01:25:43;;;;;;;0.52;0.50;;;22.30;56.10;;;;;;6276165;28;20128;-64
2023/08/05 01:28:45;;;;;;;0.47;0.45;;;22.30;56.30;;;;;;6293931;28;20047;-65
2023/08/05 01:31:49;;;;;;;0.70;0.60;;;22.30;56.20;;;;;;6294376;28;20036;-65
2023/08/05 01:34:51;;;;;;;0.47;0.40;;;22.30;56.20;;;;;;6293985;28;20029;-65
2023/08/05 01:37:52;;;;;;;0.57;0.55;;;22.30;56.30;;;;;;6293970;28;20036;-65
2023/08/05 01:40:52;;;;;;;0.50;0.50;;;22.30;56.40;;;;;;6293957;28;20090;-66
2023/08/05 01:43:53;;;;;;;0.60;0.52;;;22.30;57.10;;;;;;6293735;28;20103;-65
2023/08/05 01:46:54;;;;;;;0.40;0.40;;;22.30;57.10;;;;;;6293595;28;20067;-66
2023/08/05 01:49:54;;;;;;;0.77;0.63;;;22.30;57.10;;;;;;6293745;28;20163;-65
2023/08/05 01:52:55;;;;;;;1.25;0.75;;;22.30;57.10;;;;;;6293810;28;20517;-65
2023/08/05 01:55:56;;;;;;;0.98;0.80;;;22.30;57.10;;;;;;6293636;28;20095;-65
2023/08/05 01:58:56;;;;;;;1.05;0.57;;;22.30;57.10;;;;;;6275640;28;20041;-65
2023/08/05 02:01:57;;;;;;;0.80;0.70;;;22.30;57.10;;;;;;6293076;28;20485;-65
2023/08/05 02:04:57;;;;;;;1.23;0.90;;;22.30;57.10;;;;;;6293235;28;20052;-65
2023/08/05 02:07:58;;;;;;;0.80;0.65;;;22.30;57.20;;;;;;6293155;28;20936;-65
2023/08/05 02:10:59;;;;;;;0.73;0.70;;;22.30;57.20;;;;;;6293713;28;20032;-65
2023/08/05 02:14:00;;;;;;;1.20;0.93;;;22.30;57.20;;;;;;6295184;28;20101;-64
2023/08/05 02:17:00;;;;;;;0.93;0.60;;;22.30;57.20;;;;;;6318277;28;20558;-65
2023/08/05 02:20:01;;;;;;;1.63;0.80;;;22.30;57.20;;;;;;6302149;28;20036;-65
2023/08/05 02:23:01;;;;;;;1.25;0.82;;;22.30;57.20;;;;;;6293281;28;20032;-65
2023/08/05 02:26:02;;;;;;;0.60;0.60;;;22.30;57.30;;;;;;6292586;28;20405;-65
2023/08/05 02:29:03;;;;;;;1.80;1.00;;;22.30;57.30;;;;;;6293120;28;20033;-67
2023/08/05 02:32:04;;;;;;;0.80;0.60;;;22.30;57.30;;;;;;6293052;28;20032;-65
2023/08/05 02:35:05;;;;;;;0.88;0.70;;;22.30;57.30;;;;;;6292571;28;20045;-65
2023/08/05 02:38:06;;;;;;;0.98;0.77;;;22.30;57.30;;;;;;6292643;28;20095;-65
2023/08/05 02:41:08;;;;;;;0.60;0.60;;;22.30;57.30;;;;;;6275535;28;20044;-65
2023/08/05 02:44:08;;;;;;;0.55;0.55;;;22.20;57.10;;;;;;6292944;28;20093;-65
2023/08/05 02:47:09;;;;;;;1.27;0.80;;;22.30;57.20;;;;;;6292851;28;20028;-65
2023/08/05 02:50:10;;;;;;;0.80;0.60;;;22.30;57.30;;;;;;6274775;28;20043;-65
2023/08/05 02:53:10;;;;;;;0.85;0.77;;;22.30;57.30;;;;;;6292897;28;20094;-66
2023/08/05 02:56:11;;;;;;;0.98;0.68;;;22.30;57.30;;;;;;6292804;28;20043;-65
2023/08/05 02:59:12;;;;;;;0.90;0.70;;;22.30;57.30;;;;;;6292733;28;20516;-65
2023/08/05 03:02:13;;;;;;;1.30;0.70;;;22.30;57.30;;;;;;6293006;28;20554;-65
2023/08/05 03:05:13;;;;;;;1.27;0.88;;;22.30;57.30;;;;;;6292642;28;20059;-64
2023/08/05 03:08:14;;;;;;;0.80;0.65;;;22.30;57.30;;;;;;6292308;28;20112;-65
2023/08/05 03:11:15;;;;;;;0.82;0.70;;;22.30;57.30;;;;;;6293096;28;20041;-65
2023/08/05 03:14:15;;;;;;;1.05;0.80;;;22.30;57.40;;;;;;6295457;28;20024;-65
2023/08/05 03:17:16;;;;;;;1.15;0.73;;;22.30;57.30;;;;;;6297520;28;20045;-65
2023/08/05 03:20:30;;;;;;;0.98;0.75;;;22.30;57.40;;;;;;6296806;28;20511;-65
2023/08/05 03:23:31;;;;;;;0.90;0.63;;;22.30;57.40;;;;;;6297267;28;20112;-64
2023/08/05 03:26:31;;;;;;;0.95;0.60;;;22.30;57.40;;;;;;6297052;28;20040;-65
2023/08/05 03:29:32;;;;;;;0.77;0.60;;;22.30;57.40;;;;;;6297164;28;20028;-64
2023/08/05 03:32:33;;;;;;;0.80;0.70;;;22.30;57.30;;;;;;6297160;28;20032;-65
2023/08/05 03:35:33;;;;;;;0.57;0.50;;;22.20;57.40;;;;;;6297021;28;20485;-65
2023/08/05 03:38:34;;;;;;;1.17;0.75;;;22.30;57.40;;;;;;6296438;28;20439;-65
2023/08/05 03:41:35;;;;;;;0.90;0.70;;;22.20;57.30;;;;;;6296718;28;20059;-65
2023/08/05 03:44:36;;;;;;;1.30;0.70;;;22.30;57.40;;;;;;6296918;28;20582;-65
2023/08/05 03:47:37;;;;;;;1.00;0.70;;;22.30;57.40;;;;;;6278675;28;20032;-65
2023/08/05 03:50:38;;;;;;;0.75;0.60;;;22.20;57.40;;;;;;6296558;28;20039;-65
2023/08/05 03:53:38;;;;;;;0.50;0.45;;;22.30;57.60;;;;;;6296359;28;20031;-65
2023/08/05 03:56:39;;;;;;;0.60;0.60;;;22.20;57.50;;;;;;6296309;28;20032;-65
2023/08/05 04:03:37;;;;;;;0.90;0.73;;;22.30;57.60;;;;;;6271287;28;20032;-65
2023/08/05 04:06:37;;;;;;;0.82;0.65;;;22.20;57.30;;;;;;6271558;28;20040;-65
2023/08/05 04:09:38;;;;;;;0.65;0.60;;;22.20;57.40;;;;;;6287616;28;20104;-65
2023/08/05 04:12:39;;;;;;;1.23;0.50;;;22.20;57.50;;;;;;6278029;28;20029;-65
2023/08/05 04:15:39;;;;;;;0.68;0.60;;;22.20;57.50;;;;;;6296192;28;20654;-65
2023/08/05 04:18:42;;;;;;;0.50;0.50;;;22.20;57.50;;;;;;6295879;28;20036;-65
2023/08/05 04:21:47;;;;;;;0.85;0.60;;;22.20;57.60;;;;;;6295757;28;20021;-65
2023/08/05 04:24:48;;;;;;;;;;;22.20;57.50;;;;;;6295892;28;20040;-65
2023/08/05 04:27:48;;;;;;;1.08;0.60;;;22.20;57.60;;;;;;6277302;28;20312;-65
2023/08/05 04:30:49;;;;;;;0.65;0.60;;;22.20;57.60;;;;;;6277521;28;20481;-65
2023/08/05 04:33:50;;;;;;;0.95;0.77;;;22.20;57.60;;;;;;6295757;28;20446;-65
2023/08/05 04:36:51;;;;;;;0.60;0.60;;;22.20;57.70;;;;;;6295546;28;20099;-65
2023/08/05 04:39:52;;;;;;;1.02;0.65;;;22.20;57.70;;;;;;6295576;28;20393;-65
2023/08/05 04:42:53;;;;;;;0.80;0.65;;;22.20;57.70;;;;;;6295216;28;20036;-64
2023/08/05 04:45:54;;;;;;;0.73;0.73;;;22.20;57.70;;;;;;6295146;28;20033;-65
2023/08/05 04:48:56;;;;;;;0.75;0.60;;;22.20;57.70;;;;;;6277019;28;20329;-65
2023/08/05 04:51:56;;;;;;;0.63;0.60;;;22.20;57.80;;;;;;6277141;28;20045;-65
2023/08/05 04:54:57;;;;;;;0.60;0.50;;;22.20;57.80;;;;;;6294894;28;20021;-65
2023/08/05 04:57:58;;;;;;;1.17;0.63;;;22.20;57.80;;;;;;6294893;28;20047;-64
2023/08/05 05:00:58;;;;;;;0.93;0.70;;;22.20;57.80;;;;;;6293365;28;20093;-65
2023/08/05 05:03:59;;;;;;;0.60;0.60;;;22.20;57.80;;;;;;6294334;28;20040;-65
2023/08/05 05:07:00;;;;;;;0.80;0.60;;;22.20;57.80;;;;;;6294369;28;20046;-65
2023/08/05 05:10:01;;;;;;;1.10;0.80;;;22.20;57.80;;;;;;6294558;28;20021;-65
2023/08/05 05:13:01;;;;;;;0.60;0.50;;;22.20;57.80;;;;;;6294458;28;20020;-64
2023/08/05 05:16:03;;;;;;;0.65;0.47;;;22.20;57.80;;;;;;6295441;28;20111;-64
2023/08/05 05:19:03;;;;;;;0.93;0.57;;;22.20;57.90;;;;;;6294110;28;20532;-65
2023/08/05 05:22:04;;;;;;;0.73;0.63;;;22.20;57.90;;;;;;6294475;28;20032;-65
2023/08/05 05:25:05;;;;;;;0.90;0.60;;;22.20;57.90;;;;;;6294067;28;20036;-64
2023/08/05 05:28:06;;;;;;;0.98;0.70;;;22.20;57.90;;;;;;6294605;28;20037;-64
2023/08/05 05:31:07;;;;;;;1.27;0.70;;;22.20;57.90;;;;;;6293972;28;20098;-65
2023/08/05 05:34:08;;;;;;;0.43;0.40;;;22.20;57.90;;;;;;6294115;28;20374;-65
2023/08/05 05:37:08;;;;;;;0.90;0.70;;;22.20;57.90;;;;;;6293116;28;20028;-65
2023/08/05 05:40:09;;;;;;;0.70;0.60;;;22.20;57.90;;;;;;6294215;28;20501;-65
2023/08/05 05:43:10;;;;;;;0.60;0.60;;;22.20;57.90;;;;;;6275461;28;20166;-66
2023/08/05 05:46:13;;;;;;;0.73;0.73;;;22.20;57.90;;;;;;6293932;28;20028;-65
2023/08/05 05:49:18;;;;;;;0.95;0.70;;;22.20;57.90;;;;;;6293865;28;20029;-65
2023/08/05 05:52:19;;;;;;;1.42;0.70;;;22.20;58.00;;;;;;6293705;28;20025;-65
2023/08/05 05:55:20;;;;;;;0.47;0.38;;;22.20;58.00;;;;;;6293683;28;20490;-65
2023/08/05 05:58:21;;;;;;;0.50;0.50;;;22.20;58.00;;;;;;6293817;28;20036;-65
2023/08/05 06:01:23;;;;;;;0.57;0.57;;;22.20;58.00;;;;;;6276263;28;20067;-65
2023/08/05 06:04:27;;;;;;;0.68;0.65;;;22.20;58.00;;;;;;6293135;28;20067;-65
2023/08/05 06:07:28;;;;;;;1.10;0.80;;;22.20;58.00;;;;;;6293673;28;20110;-65
2023/08/05 06:10:29;;;;;;;0.95;0.73;;;22.20;58.00;;;;;;6293535;28;20493;-65
2023/08/05 06:13:30;;;;;;;0.60;0.60;;;22.20;58.00;;;;;;6296617;28;20073;-65
2023/08/05 06:16:32;;;;;;;0.68;0.60;;;22.20;58.00;;;;;;6295381;28;20029;-64
2023/08/05 06:19:32;;;;;;;0.60;0.52;;;22.20;58.00;;;;;;6293148;28;20107;-66
2023/08/05 06:22:33;;;;;;;0.55;0.50;;;22.20;58.00;;;;;;6275060;28;20032;-65
2023/08/05 06:25:34;;;;;;;0.65;0.50;;;22.20;58.10;;;;;;6293179;28;20028;-65
2023/08/05 06:28:34;;;;;;;0.93;0.80;;;22.20;58.00;;;;;;6292844;28;20025;-64
2023/08/05 06:31:35;;;;;;;0.90;0.70;;;22.20;58.10;;;;;;6293148;28;20107;-65
2023/08/05 06:34:36;;;;;;;0.77;0.60;;;22.20;58.00;;;;;;6293015;28;20029;-65
2023/08/05 06:37:36;;;;;;;0.60;0.60;;;22.20;58.10;;;;;;6293254;28;20062;-65
2023/08/05 06:40:41;;;;;;;0.75;0.40;;;22.20;58.10;;;;;;6293624;28;20090;-65
2023/08/05 06:43:41;;;;;;;0.55;0.55;;;22.20;58.10;;;;;;6293255;28;20036;-65
2023/08/05 06:46:42;;;;;;;0.57;0.55;;;22.20;58.10;;;;;;6293184;28;20033;-65
2023/08/05 06:49:43;;;;;;;0.68;0.45;;;22.20;58.10;;;;;;6298160;28;20076;-65
2023/08/05 06:52:44;;;;;;;1.00;0.40;;;22.20;58.10;;;;;;6297658;28;20020;-65
2023/08/05 06:55:45;;;;;;;0.60;0.60;;;22.20;58.10;;;;;;6297802;28;20028;-64
2023/08/05 06:58:46;;;;;;;0.63;0.50;;;22.20;58.10;;;;;;6297567;28;20029;-65
2023/08/05 07:01:47;;;;;;;0.63;0.63;;;22.20;58.20;;;;;;6297931;28;20523;-65
2023/08/05 07:04:48;;;;;;;1.08;0.77;;;22.20;58.20;;;;;;6297346;28;20102;-64
2023/08/05 07:07:49;;;;;;;0.57;0.55;;;22.20;58.10;;;;;;6297243;28;20044;-65
2023/08/05 07:10:56;;;;;;;0.60;0.50;;;22.20;58.20;;;;;;6297598;28;20025;-65
2023/08/05 07:13:57;;;;;;;0.57;0.50;;;22.20;58.20;;;;;;6297387;28;20063;-64
2023/08/05 07:16:58;;;;;;;0.40;0.40;;;22.20;58.20;;;;;;6296784;28;20032;-65
2023/08/05 07:19:59;;;;;;;0.47;0.47;;;22.20;58.20;;;;;;6297407;28;20392;-65
2023/08/05 07:23:00;;;;;;;1.00;0.60;;;22.20;58.20;;;;;;6296975;28;20111;-65
2023/08/05 07:26:01;;;;;;;0.60;0.60;;;22.20;58.20;;;;;;6296631;28;20029;-65
2023/08/05 07:29:02;;;;;;;0.90;0.68;;;22.20;58.20;;;;;;6296965;28;20033;-65
2023/08/05 07:32:03;;;;;;;0.43;0.43;;;22.20;58.20;;;;;;6296799;28;20044;-64
2023/08/05 07:35:07;;;;;;;0.43;0.43;;;22.20;58.20;;;;;;6296935;28;20457;-65
2023/08/05 07:38:12;;;;;;;0.60;0.60;;;22.20;58.20;;;;;;6297172;28;20025;-65
2023/08/05 07:41:13;;;;;;;0.65;0.52;;;22.20;58.20;;;;;;6297372;28;20056;-66
2023/08/05 07:44:14;;;;;;;0.50;0.50;;;22.20;58.20;;;;;;6296841;28;20066;-68
2023/08/05 07:47:15;;;;;;;0.75;0.60;;;22.20;58.20;;;;;;6296877;28;20566;-67
2023/08/05 07:50:21;;;;;;;0.63;0.60;;;22.20;58.20;;;;;;6278877;28;20028;-68
2023/08/05 07:53:23;;;;;;;0.73;0.60;;;22.20;58.20;;;;;;6278610;28;20063;-66
2023/08/05 07:56:24;;;;;;;0.88;0.80;;;22.20;58.20;;;;;;6278899;28;20054;-66
2023/08/05 07:59:27;;;;;;;0.52;0.52;;;22.20;58.20;;;;;;6296558;28;20033;-65
2023/08/05 08:02:28;;;;;;;0.52;0.40;;;22.20;58.20;;;;;;6297422;28;20554;-64
2023/08/05 08:05:29;;;;;;;0.40;0.40;;;22.20;58.20;;;;;;6297244;28;20354;-64
2023/08/05 08:08:30;;;;;;;0.60;0.50;;;22.20;58.20;;;;;;6297226;28;20029;-64
2023/08/05 08:11:30;;;;;;;0.60;0.50;;;22.20;58.20;;;;;;6297401;28;20493;-64
2023/08/05 08:14:31;;;;;;;0.50;0.47;;;22.20;58.30;;;;;;6297117;28;20407;-65
2023/08/05 08:17:31;;;;;;;0.50;0.50;;;22.20;58.30;;;;;;6278832;28;20416;-64
2023/08/05 08:20:32;;;;;;;0.70;0.52;;;22.10;58.20;;;;;;6296739;28;20516;-65
2023/08/05 08:23:34;;;;;;;0.43;0.40;;;22.20;58.30;;;;;;6297077;28;20036;-65
2023/08/05 08:26:34;;;;;;;1.10;0.68;;;22.20;58.30;;;;;;6296348;28;20575;-64
2023/08/05 08:29:35;;;;;;;0.70;0.60;;;22.10;58.90;;;;;;6296683;28;20024;-64
2023/08/05 08:32:36;;;;;;;0.50;0.40;;;22.10;58.30;;;;;;6297062;28;20068;-65
2023/08/05 08:35:38;;;;;;;0.85;0.55;;;22.20;58.30;;;;;;6296483;28;20033;-64
2023/08/05 08:38:39;;;;;;;0.50;0.43;;;22.20;58.30;;;;;;6296198;28;20377;-64
2023/08/05 08:41:45;;;;;;;0.65;0.60;;;22.20;58.30;;;;;;6296357;28;20068;-64
2023/08/05 08:44:46;;;;;;;0.80;0.60;;;22.20;58.30;;;;;;6296315;28;20060;-64
2023/08/05 08:47:49;;;;;;;0.43;0.43;;;22.20;58.40;;;;;;6296440;28;20044;-64
2023/08/05 08:50:52;;;;;;;1.08;0.68;;;22.10;58.30;;;;;;6296010;28;20028;-65
2023/08/05 08:53:52;;;;;;;0.57;0.50;;;22.10;58.30;;;;;;6296091;28;20158;-65
2023/08/05 08:56:53;;;;;;;1.70;0.60;;;22.10;58.30;;;;;;6296359;28;20068;-64
2023/08/05 08:59:54;;;;;;;0.70;0.60;;;22.10;58.30;;;;;;6277922;28;20060;-64
2023/08/05 09:02:56;;;;;;;0.47;0.47;;;22.20;58.30;;;;;;6295850;28;20385;-64
2023/08/05 09:05:58;;;;;;;0.65;0.55;;;22.20;58.40;;;;;;6277340;28;20076;-65
2023/08/05 09:08:59;;;;;;;0.65;0.60;;;22.10;58.30;;;;;;6295795;28;20052;-64
2023/08/05 09:11:59;;;;;;;1.08;0.68;;;22.10;58.30;;;;;;6294708;28;20036;-65
2023/08/05 09:15:00;;;;;;;0.50;0.50;;;22.10;58.40;;;;;;6295922;28;20485;-64
2023/08/05 09:18:03;;;;;;;0.63;0.55;;;22.10;58.40;;;;;;6295154;28;20097;-65
2023/08/05 09:21:03;;;;;;;0.70;0.40;;;22.10;58.40;;;;;;6295220;28;20479;-64
2023/08/05 09:24:04;;;;;;;0.80;0.60;;;22.10;58.40;;;;;;6295678;28;20033;-64
2023/08/05 09:27:05;;;;;;;0.60;0.60;;;22.10;58.40;;;;;;6295280;28;20036;-65
2023/08/05 09:30:19;;;;;;;0.60;0.60;;;22.10;58.40;;;;;;6290778;28;20047;-62
2023/08/05 09:33:27;;;;;;;0.57;0.57;;;22.10;58.40;;;;;;6294303;28;20116;-66
2023/08/05 09:36:30;;;;;;;0.52;0.52;;;22.10;58.40;;;;;;6294499;28;20377;-63
2023/08/05 09:39:49;;;;;;;0.70;0.60;;;22.10;58.40;;;;;;6292461;28;20062;-64
2023/08/05 09:42:51;;;;;;;0.60;0.40;;;22.10;58.40;;;;;;6294329;28;20031;-65
2023/08/05 09:45:51;;;;;;;0.75;0.55;;;22.10;58.40;;;;;;6293884;28;20035;-63
2023/08/05 09:48:54;;;;;;;0.80;0.60;;;22.10;58.50;;;;;;6293938;28;20072;-64
2023/08/05 09:51:55;;;;;;;0.45;0.40;;;22.10;58.50;;;;;;6293812;28;20024;-64
2023/08/05 09:55:03;;;;;;;0.40;0.40;;;22.10;58.50;;;;;;6294009;28;20032;-64
2023/08/05 09:58:07;;;;;;;0.88;0.60;;;22.10;58.50;;;;;;6294366;28;20217;-63
2023/08/05 10:01:08;;;;;;;0.50;0.45;;;22.10;58.50;;;;;;6294369;28;20024;-64
2023/08/05 10:04:11;;;;;;;0.40;0.40;;;22.10;58.50;;;;;;6294477;28;20060;-64
2023/08/05 10:07:14;;;;;;;0.75;0.50;;;22.10;58.50;;;;;;6294248;28;20095;-64
2023/08/05 10:10:16;;;;;;;0.60;0.50;;;22.10;58.50;;;;;;6294191;28;20037;-64
2023/08/05 10:13:20;;;;;;;0.90;0.50;;;22.10;58.50;;;;;;6294192;28;20029;-63
2023/08/05 10:16:21;;;;;;;1.52;0.52;;;22.10;58.50;;;;;;6294376;28;20116;-63
2023/08/05 10:19:30;;;;;;;1.33;0.60;;;22.10;58.50;;;;;;6294089;28;20077;-63
2023/08/05 10:22:31;;;;;;;0.88;0.60;;;22.10;58.50;;;;;;6275797;28;20078;-64
2023/08/05 10:25:57;;;;;;;1.00;0.80;;;22.10;58.50;;;;;;6294176;28;20021;-63
2023/08/05 10:28:57;;;;;;;0.57;0.47;;;22.10;58.50;;;;;;6293887;28;20120;-64
2023/08/05 10:32:14;;;;;;;0.52;0.50;;;22.10;58.50;;;;;;6293930;28;20097;-63
2023/08/05 10:35:39;;;;;;;0.88;0.55;;;22.10;58.50;;;;;;6294237;28;20438;-63
2023/08/05 10:38:43;;;;;;;0.40;0.40;;;22.10;58.50;;;;;;6293923;28;20033;-64
2023/08/05 10:41:44;;;;;;;0.50;0.50;;;22.10;58.50;;;;;;6293802;28;20493;-64
2023/08/05 10:44:48;;;;;;;0.45;0.30;;;22.10;58.50;;;;;;6293891;28;20025;-64
2023/08/05 10:47:49;;;;;;;0.68;0.57;;;22.10;58.50;;;;;;6293726;28;20037;-64
2023/08/05 10:50:49;;;;;;;0.43;0.43;;;22.10;58.50;;;;;;6293780;28;20021;-64
2023/08/05 10:53:53;;;;;;;0.50;0.50;;;22.10;58.50;;;;;;6275644;28;20102;-64
2023/08/05 10:56:54;;;;;;;0.50;0.50;;;22.10;58.60;;;;;;6293757;28;20036;-64
2023/08/05 11:00:02;;;;;;;0.40;0.40;;;22.10;58.60;;;;;;6293635;28;20040;-64
2023/08/05 11:03:23;;;;;;;0.60;0.40;;;22.10;58.60;;;;;;6293408;28;20041;-61
2023/08/05 11:06:25;;;;;;;0.32;0.32;;;22.10;58.60;;;;;;6275692;28;20040;-64
2023/08/05 11:09:26;;;;;;;0.57;0.43;;;22.10;58.60;;;;;;6293525;28;20422;-65
2023/08/05 11:12:29;;;;;;;0.55;0.47;;;22.10;58.60;;;;;;6293552;28;20043;-65
2023/08/05 11:15:30;;;;;;;0.50;0.40;;;22.10;58.60;;;;;;6293782;28;20028;-64
2023/08/05 11:18:31;;;;;;;0.30;0.30;;;22.10;58.60;;;;;;6293600;28;20033;-64
2023/08/05 11:21:32;;;;;;;0.40;0.40;;;22.10;58.60;;;;;;6275182;28;20037;-64
2023/08/05 11:24:32;;;;;;;0.70;0.55;;;22.10;58.60;;;;;;6293718;28;20047;-63
2023/08/05 11:27:46;;;;;;;0.57;0.40;;;22.10;58.60;;;;;;6293446;28;20032;-64
2023/08/05 11:30:47;;;;;;;1.95;0.60;;;22.10;58.60;;;;;;6293543;28;20036;-64
2023/08/05 11:33:50;;;;;;;0.50;0.40;;;22.10;58.60;;;;;;6275359;28;20056;-64
2023/08/05 11:36:58;;;;;;;0.60;0.50;;;22.10;58.60;;;;;;6297922;28;20068;-64
2023/08/05 11:40:01;;;;;;;0.98;0.40;;;22.10;58.60;;;;;;6297732;28;20087;-63
2023/08/05 11:43:05;;;;;;;0.47;0.45;;;22.10;58.60;;;;;;6297597;28;20474;-64
2023/08/05 11:46:06;;;;;;;0.50;0.47;;;22.10;58.60;;;;;;6297450;28;20494;-64
2023/08/05 11:49:12;;;;;;;0.55;0.50;;;22.10;58.70;;;;;;6297317;28;20032;-64
2023/08/05 11:52:13;;;;;;;0.50;0.50;;;22.10;58.70;;;;;;6297486;28;20389;-63
2023/08/05 11:55:13;;;;;;;0.65;0.60;;;22.10;58.70;;;;;;6297438;28;20044;-64
2023/08/05 11:58:14;;;;;;;0.60;0.52;;;22.10;58.70;;;;;;6297545;28;20025;-65
2023/08/05 12:01:15;;;;;;;0.43;0.40;;;22.10;58.60;;;;;;6297129;28;20067;-64
2023/08/05 12:04:15;;;;;;;0.50;0.50;;;22.10;58.70;;;;;;6297016;28;20724;-65
2023/08/05 12:07:20;;;;;;;0.47;0.40;;;22.10;58.70;;;;;;6296974;28;20419;-63
2023/08/05 12:10:21;;;;;;;0.68;0.40;;;22.10;58.70;;;;;;6297536;28;20441;-63
2023/08/05 12:13:21;;;;;;;0.50;0.50;;;22.10;58.70;;;;;;6296945;28;20025;-64
2023/08/05 12:16:22;;;;;;;0.55;0.55;;;22.10;58.60;;;;;;6296965;28;20027;-65
2023/08/05 12:19:27;;;;;;;0.43;0.43;;;22.10;58.60;;;;;;6296911;28;20082;-64
2023/08/05 12:22:28;;;;;;;0.73;0.60;;;22.10;58.70;;;;;;6296866;28;20032;-65
2023/08/05 12:25:31;;;;;;;0.50;0.50;;;22.10;58.60;;;;;;6278887;28;20043;-64
2023/08/05 12:28:31;;;;;;;0.90;0.50;;;22.10;58.60;;;;;;6296691;28;20536;-64
2023/08/05 12:31:32;;;;;;;0.70;0.60;;;22.10;58.60;;;;;;6296770;28;20028;-64
2023/08/05 12:34:33;;;;;;;0.95;0.68;;;22.10;58.60;;;;;;6296665;28;20500;-65
2023/08/05 12:37:36;;;;;;;0.60;0.50;;;22.10;58.60;;;;;;6296255;28;20024;-64
2023/08/05 12:40:36;;;;;;;0.70;0.40;;;22.10;58.60;;;;;;6296511;28;20589;-65
2023/08/05 12:43:38;;;;;;;0.55;0.40;;;22.10;58.60;;;;;;6278400;28;20040;-64
2023/08/05 12:46:38;;;;;;;0.73;0.57;;;22.10;58.60;;;;;;6296042;28;20036;-64
2023/08/05 12:49:39;;;;;;;0.30;0.30;;;22.10;58.60;;;;;;6296253;28;20516;-64
2023/08/05 12:52:40;;;;;;;1.02;0.60;;;22.10;58.60;;;;;;6295999;28;20024;-64
2023/08/05 12:55:41;;;;;;;0.98;0.52;;;22.10;58.60;;;;;;6295905;28;20036;-63
2023/08/05 12:58:41;;;;;;;0.55;0.52;;;22.10;58.60;;;;;;6295822;28;20032;-65
2023/08/05 13:01:42;;;;;;;0.47;0.40;;;22.10;58.60;;;;;;6296197;28;20029;-64
2023/08/05 13:04:44;;;;;;;1.20;0.52;;;22.10;58.70;;;;;;6295697;28;20048;-64
2023/08/05 13:07:45;;;;;;;0.60;0.40;;;22.10;58.60;;;;;;6295597;28;20035;-63
2023/08/05 13:10:47;;;;;;;0.73;0.63;;;22.10;58.70;;;;;;6295712;28;20107;-64
2023/08/05 13:13:47;;;;;;;0.80;0.60;;;22.10;58.70;;;;;;6295702;28;20040;-64
2023/08/05 13:16:48;;;;;;;0.70;0.60;;;22.10;58.70;;;;;;6295460;28;20024;-63
2023/08/05 13:19:49;;;;;;;0.68;0.60;;;22.10;58.70;;;;;;6295580;28;20036;-64
2023/08/05 13:22:49;;;;;;;0.63;0.60;;;22.10;58.70;;;;;;6295382;28;20028;-64
2023/08/05 13:25:50;;;;;;;0.63;0.52;;;22.10;58.70;;;;;;6295484;28;20470;-64
2023/08/05 13:28:51;;;;;;;0.60;0.50;;;22.10;58.70;;;;;;6294973;28;20040;-64
2023/08/05 13:31:51;;;;;;;1.05;0.70;;;22.10;58.70;;;;;;6295360;28;20029;-64
2023/08/05 13:34:52;;;;;;;0.63;0.50;;;22.10;58.80;;;;;;6295477;28;20039;-65
2023/08/05 13:37:53;;;;;;;0.90;0.57;;;22.10;58.80;;;;;;6277119;28;20034;-64
2023/08/05 13:40:54;;;;;;;0.63;0.52;;;22.10;58.80;;;;;;6297079;28;20035;-64
2023/08/05 13:43:54;;;;;;;0.68;0.50;;;22.10;58.80;;;;;;6294966;28;20036;-64
2023/08/05 13:46:55;;;;;;;0.70;0.70;;;22.10;58.80;;;;;;6294664;28;20503;-65
2023/08/05 13:49:56;;;;;;;0.80;0.47;;;22.10;58.80;;;;;;6295033;28;20072;-65
2023/08/05 13:52:56;;;;;;;0.40;0.40;;;22.10;58.80;;;;;;6294592;28;20093;-65
2023/08/05 13:55:59;;;;;;;1.00;0.80;;;22.10;58.80;;;;;;6294586;28;20086;-64
2023/08/05 13:58:59;;;;;;;0.73;0.60;;;22.10;58.80;;;;;;6276034;28;20036;-64
2023/08/05 14:02:00;;;;;;;0.70;0.60;;;22.10;58.80;;;;;;6294707;28;20040;-64
2023/08/05 14:05:01;;;;;;;1.15;0.80;;;22.10;58.80;;;;;;6294529;28;20564;-64
2023/08/05 14:08:01;;;;;;;0.50;0.50;;;22.10;58.90;;;;;;6294508;28;20060;-64
2023/08/05 14:11:02;;;;;;;1.52;0.60;;;22.10;58.90;;;;;;6294341;28;20048;-64
2023/08/05 14:14:03;;;;;;;0.50;0.50;;;22.10;58.90;;;;;;6294618;28;20083;-64
2023/08/05 14:17:04;;;;;;;0.95;0.55;;;22.10;58.80;;;;;;6294136;28;20028;-64
2023/08/05 14:20:05;;;;;;;0.70;0.60;;;22.10;58.90;;;;;;6276716;28;20086;-64
2023/08/05 14:23:06;;;;;;;0.70;0.57;;;22.10;58.90;;;;;;6294897;28;20489;-64
2023/08/05 14:26:06;;;;;;;0.52;0.50;;;22.10;58.90;;;;;;6294195;28;20111;-65
2023/08/05 14:29:07;;;;;;;0.70;0.60;;;22.10;58.90;;;;;;6264312;28;20141;-64
2023/08/05 14:32:08;;;;;;;5.05;0.80;;;22.10;59.00;;;;;;6291535;28;20434;-68
2023/08/05 14:35:09;;;;;;;0.85;0.40;;;22.10;59.20;;;;;;6290835;28;20020;-65
2023/08/05 14:38:10;;;;;;;1.02;0.73;;;22.10;58.90;;;;;;6276453;28;20472;-65
2023/08/05 14:41:14;;;;;;;5.78;0.68;;;22.10;59.00;;;;;;6292930;28;20029;-64
2023/08/05 14:44:15;;;;;;;3.90;0.60;;;22.10;59.00;;;;;;6302199;28;20037;-65
2023/08/05 14:47:16;;;;;;;6.50;0.60;;;22.30;56.40;;;;;;6303180;28;20032;-65
2023/08/05 14:50:17;;;;;;;3.00;0.70;;;22.50;55.70;;;;;;6293195;28;20036;-66
2023/08/05 14:53:17;;;;;;;1.15;0.68;;;22.60;55.10;;;;;;6293459;28;20055;-66
2023/08/05 14:56:18;;;;;;;1.45;0.57;;;22.80;54.40;;;;;;6292662;28;20036;-65
2023/08/05 14:59:19;;;;;;;2.58;0.70;;;22.90;53.90;;;;;;6291775;28;20032;-66
2023/08/05 15:02:21;;;;;;;1.85;0.60;;;23.00;53.70;;;;;;6274275;28;20090;-66
2023/08/05 15:05:22;;;;;;;1.15;0.60;;;23.10;53.50;;;;;;6290535;28;20049;-66
2023/08/05 15:08:23;;;;;;;1.02;0.60;;;23.20;53.20;;;;;;6290596;28;20044;-65
2023/08/05 15:11:24;;;;;;;1.33;0.98;;;23.30;53.10;;;;;;6295378;28;20056;-66
2023/08/05 15:14:25;;;;;;;4.90;1.35;;;23.20;52.70;;;;;;6276965;28;20466;-66
2023/08/05 15:17:25;;;;;;;3.92;1.10;;;23.30;52.60;;;;;;6295632;28;20024;-66
2023/08/05 15:20:27;;;;;;;2.10;0.93;;;23.30;52.40;;;;;;6295146;28;20043;-65
2023/08/05 15:23:27;;;;;;;7.75;1.30;;;23.30;52.80;;;;;;6283178;28;20048;-66
2023/08/05 15:26:28;;;;;;;3.60;1.10;;;23.40;52.70;;;;;;6291472;28;20036;-65
2023/08/05 15:29:29;;;;;;;4.95;1.75;;;23.40;52.50;;;;;;6295120;28;20051;-65
2023/08/05 15:32:30;;;;;;;4.07;1.20;;;23.40;52.30;;;;;;6276934;28;20043;-66
2023/08/05 15:35:30;;;;;;;1.10;0.90;;;23.40;52.20;;;;;;6294786;28;20102;-65
2023/08/05 15:38:31;;;;;;;1.73;1.10;;;23.40;52.20;;;;;;6276844;28;20413;-66
2023/08/05 15:41:32;;;;;;;1.80;1.10;;;23.40;52.10;;;;;;6283346;28;20489;-65
2023/08/05 15:44:36;;;;;;;4.45;1.30;;;23.40;52.00;;;;;;6294389;28;20024;-65
2023/08/05 15:47:38;;;;;;;10.63;1.20;;;23.40;51.90;;;;;;6295003;28;20091;-65
2023/08/05 15:50:39;;;;;;;2.67;1.20;;;23.40;52.00;;;;;;6294273;28;20032;-66